Clitherall, Minnesota
Current Conditions -  °F | °C
As of 5:15 AM on Friday 28 Nov 2014 (Local Time) from KADC Reporting Station
Light Snow Light Snow  
Wind Chill: -6°   Ceiling: 4700
Heat Index:   Visibility: 4mi
Dew Point:   Wind: 8mph
Humidity: 85%   Direction: 130°SE
Pressure: 29.99"   Gusts: NA
Location:  46.27°N, 95.63°W
Report Text: KADC 281115Z AUTO 13007KT 4SM -SN SCT012 SCT037 OVC047 M14/M16 A2999 RMK AO2
Loading
Personal Weather Stations






























Interactive Weather Map New forecast layout! Learn more

10-Day Weather Forecast

Advertisements
Track Severe Weather on mobile